sensor_id;sensor_type;location;lat;lon;timestamp;P1;durP1;ratioP1;P2;durP2;ratioP2
32838;SDS011;19182;41.820;12.808;2023-08-17T00:00:30;10.60;;;6.35;;
32838;SDS011;19182;41.820;12.808;2023-08-17T00:02:56;7.55;;;6.65;;
32838;SDS011;19182;41.820;12.808;2023-08-17T00:05:22;14.32;;;6.78;;
32838;SDS011;19182;41.820;12.808;2023-08-17T00:07:48;8.82;;;6.53;;
32838;SDS011;19182;41.820;12.808;2023-08-17T00:10:14;9.77;;;6.40;;
32838;SDS011;19182;41.820;12.808;2023-08-17T00:12:39;8.82;;;6.75;;
32838;SDS011;19182;41.820;12.808;2023-08-17T00:15:08;10.90;;;6.90;;
32838;SDS011;19182;41.820;12.808;2023-08-17T00:17:34;11.55;;;7.07;;
32838;SDS011;19182;41.820;12.808;2023-08-17T00:20:00;9.73;;;6.88;;
32838;SDS011;19182;41.820;12.808;2023-08-17T00:22:25;8.90;;;6.68;;
32838;SDS011;19182;41.820;12.808;2023-08-17T00:24:52;12.27;;;7.10;;
32838;SDS011;19182;41.820;12.808;2023-08-17T00:27:18;9.27;;;6.70;;
32838;SDS011;19182;41.820;12.808;2023-08-17T00:29:44;8.77;;;6.90;;
32838;SDS011;19182;41.820;12.808;2023-08-17T00:32:09;9.18;;;7.30;;
32838;SDS011;19182;41.820;12.808;2023-08-17T00:34:35;8.77;;;7.22;;
32838;SDS011;19182;41.820;12.808;2023-08-17T00:37:01;9.52;;;6.97;;
32838;SDS011;19182;41.820;12.808;2023-08-17T00:39:26;11.77;;;7.10;;
32838;SDS011;19182;41.820;12.808;2023-08-17T00:41:52;11.07;;;7.25;;
32838;SDS011;19182;41.820;12.808;2023-08-17T00:44:18;12.98;;;7.32;;
32838;SDS011;19182;41.820;12.808;2023-08-17T00:46:43;11.35;;;7.35;;
32838;SDS011;19182;41.820;12.808;2023-08-17T00:49:09;8.63;;;6.78;;
32838;SDS011;19182;41.820;12.808;2023-08-17T00:51:35;11.05;;;7.68;;
32838;SDS011;19182;41.820;12.808;2023-08-17T00:54:01;8.00;;;7.20;;
32838;SDS011;19182;41.820;12.808;2023-08-17T00:56:27;8.63;;;7.20;;
32838;SDS011;19182;41.820;12.808;2023-08-17T00:58:54;9.13;;;6.97;;
32838;SDS011;19182;41.820;12.808;2023-08-17T01:01:21;9.50;;;7.13;;
32838;SDS011;19182;41.820;12.808;2023-08-17T01:03:48;9.30;;;6.70;;
32838;SDS011;19182;41.820;12.808;2023-08-17T01:06:13;8.50;;;7.00;;
32838;SDS011;19182;41.820;12.808;2023-08-17T01:08:39;11.30;;;7.40;;
32838;SDS011;19182;41.820;12.808;2023-08-17T01:14:02;11.95;;;6.85;;
32838;SDS011;19182;41.820;12.808;2023-08-17T01:16:56;15.07;;;7.38;;
32838;SDS011;19182;41.820;12.808;2023-08-17T01:19:40;9.85;;;7.55;;
32838;SDS011;19182;41.820;12.808;2023-08-17T01:22:08;8.02;;;7.20;;
32838;SDS011;19182;41.820;12.808;2023-08-17T01:24:36;8.75;;;7.43;;
32838;SDS011;19182;41.820;12.808;2023-08-17T01:27:01;9.80;;;6.93;;
32838;SDS011;19182;41.820;12.808;2023-08-17T01:29:27;9.88;;;7.28;;
32838;SDS011;19182;41.820;12.808;2023-08-17T01:34:33;8.53;;;7.27;;
32838;SDS011;19182;41.820;12.808;2023-08-17T01:37:04;13.10;;;8.05;;
32838;SDS011;19182;41.820;12.808;2023-08-17T01:39:37;12.38;;;6.38;;
32838;SDS011;19182;41.820;12.808;2023-08-17T01:42:08;11.38;;;6.57;;
32838;SDS011;19182;41.820;12.808;2023-08-17T01:44:35;13.43;;;7.00;;
32838;SDS011;19182;41.820;12.808;2023-08-17T01:47:02;7.88;;;6.32;;
32838;SDS011;19182;41.820;12.808;2023-08-17T01:49:30;7.00;;;6.30;;
32838;SDS011;19182;41.820;12.808;2023-08-17T01:51:56;9.88;;;6.68;;
32838;SDS011;19182;41.820;12.808;2023-08-17T01:54:22;10.15;;;7.22;;
32838;SDS011;19182;41.820;12.808;2023-08-17T01:56:48;8.65;;;6.85;;
32838;SDS011;19182;41.820;12.808;2023-08-17T01:59:14;7.95;;;6.38;;
32838;SDS011;19182;41.820;12.808;2023-08-17T02:01:39;10.02;;;7.07;;
32838;SDS011;19182;41.820;12.808;2023-08-17T02:04:05;9.00;;;6.70;;
32838;SDS011;19182;41.820;12.808;2023-08-17T02:06:32;13.45;;;7.50;;
32838;SDS011;19182;41.820;12.808;2023-08-17T02:08:58;8.10;;;6.72;;
32838;SDS011;19182;41.820;12.808;2023-08-17T02:11:24;8.18;;;6.55;;
32838;SDS011;19182;41.820;12.808;2023-08-17T02:13:50;7.78;;;6.43;;
32838;SDS011;19182;41.820;12.808;2023-08-17T02:16:15;9.15;;;6.00;;
32838;SDS011;19182;41.820;12.808;2023-08-17T02:18:41;7.03;;;6.32;;
32838;SDS011;19182;41.820;12.808;2023-08-17T02:21:07;11.07;;;6.25;;
32838;SDS011;19182;41.820;12.808;2023-08-17T02:23:34;8.43;;;6.88;;
32838;SDS011;19182;41.820;12.808;2023-08-17T02:26:00;10.63;;;6.97;;
32838;SDS011;19182;41.820;12.808;2023-08-17T02:28:25;7.70;;;6.90;;
32838;SDS011;19182;41.820;12.808;2023-08-17T02:30:54;7.38;;;5.82;;
32838;SDS011;19182;41.820;12.808;2023-08-17T02:33:21;11.75;;;6.90;;
32838;SDS011;19182;41.820;12.808;2023-08-17T02:35:48;9.82;;;6.82;;
32838;SDS011;19182;41.820;12.808;2023-08-17T02:38:14;8.00;;;6.22;;
32838;SDS011;19182;41.820;12.808;2023-08-17T02:40:40;11.27;;;6.75;;
32838;SDS011;19182;41.820;12.808;2023-08-17T02:43:05;10.93;;;6.95;;
32838;SDS011;19182;41.820;12.808;2023-08-17T02:45:31;7.38;;;6.38;;
32838;SDS011;19182;41.820;12.808;2023-08-17T02:47:59;7.35;;;6.65;;
32838;SDS011;19182;41.820;12.808;2023-08-17T02:50:25;7.82;;;6.90;;
32838;SDS011;19182;41.820;12.808;2023-08-17T02:52:50;7.15;;;6.38;;
32838;SDS011;19182;41.820;12.808;2023-08-17T02:55:16;7.82;;;6.38;;
32838;SDS011;19182;41.820;12.808;2023-08-17T02:57:42;9.80;;;6.82;;
32838;SDS011;19182;41.820;12.808;2023-08-17T03:00:07;8.45;;;6.45;;
32838;SDS011;19182;41.820;12.808;2023-08-17T03:02:33;8.95;;;5.47;;
32838;SDS011;19182;41.820;12.808;2023-08-17T03:05:01;8.55;;;6.50;;
32838;SDS011;19182;41.820;12.808;2023-08-17T03:07:28;9.95;;;6.18;;
32838;SDS011;19182;41.820;12.808;2023-08-17T03:09:54;8.27;;;5.60;;
32838;SDS011;19182;41.820;12.808;2023-08-17T03:12:20;8.27;;;6.40;;
32838;SDS011;19182;41.820;12.808;2023-08-17T03:14:46;7.75;;;6.50;;
32838;SDS011;19182;41.820;12.808;2023-08-17T03:17:12;7.22;;;6.40;;
32838;SDS011;19182;41.820;12.808;2023-08-17T03:19:37;12.65;;;6.50;;
32838;SDS011;19182;41.820;12.808;2023-08-17T03:22:03;10.10;;;5.93;;
32838;SDS011;19182;41.820;12.808;2023-08-17T03:24:29;7.93;;;6.40;;
32838;SDS011;19182;41.820;12.808;2023-08-17T03:26:55;11.68;;;8.50;;
32838;SDS011;19182;41.820;12.808;2023-08-17T03:29:20;8.75;;;7.22;;
32838;SDS011;19182;41.820;12.808;2023-08-17T03:31:46;8.65;;;6.70;;
32838;SDS011;19182;41.820;12.808;2023-08-17T03:34:14;8.98;;;7.22;;
32838;SDS011;19182;41.820;12.808;2023-08-17T03:36:40;7.85;;;6.90;;
32838;SDS011;19182;41.820;12.808;2023-08-17T03:39:07;9.57;;;6.22;;
32838;SDS011;19182;41.820;12.808;2023-08-17T03:41:33;23.48;;;10.15;;
32838;SDS011;19182;41.820;12.808;2023-08-17T03:44:01;13.10;;;8.88;;
32838;SDS011;19182;41.820;12.808;2023-08-17T03:46:30;14.23;;;10.45;;
32838;SDS011;19182;41.820;12.808;2023-08-17T03:48:58;18.27;;;12.57;;
32838;SDS011;19182;41.820;12.808;2023-08-17T03:51:24;18.65;;;10.35;;
32838;SDS011;19182;41.820;12.808;2023-08-17T03:53:50;18.13;;;10.55;;
32838;SDS011;19182;41.820;12.808;2023-08-17T03:56:17;13.82;;;10.90;;
32838;SDS011;19182;41.820;12.808;2023-08-17T03:58:44;11.32;;;9.38;;
32838;SDS011;19182;41.820;12.808;2023-08-17T04:01:11;10.00;;;8.70;;
32838;SDS011;19182;41.820;12.808;2023-08-17T04:03:39;13.38;;;9.05;;
32838;SDS011;19182;41.820;12.808;2023-08-17T04:06:05;15.90;;;8.60;;
32838;SDS011;19182;41.820;12.808;2023-08-17T04:08:32;12.90;;;7.78;;
32838;SDS011;19182;41.820;12.808;2023-08-17T04:10:59;11.25;;;8.18;;
32838;SDS011;19182;41.820;12.808;2023-08-17T04:13:25;11.27;;;8.07;;
32838;SDS011;19182;41.820;12.808;2023-08-17T04:15:52;12.15;;;8.57;;
32838;SDS011;19182;41.820;12.808;2023-08-17T04:18:18;12.20;;;8.68;;
32838;SDS011;19182;41.820;12.808;2023-08-17T04:20:44;10.90;;;8.65;;
32838;SDS011;19182;41.820;12.808;2023-08-17T04:23:09;11.77;;;8.52;;
32838;SDS011;19182;41.820;12.808;2023-08-17T04:25:35;11.63;;;7.90;;
32838;SDS011;19182;41.820;12.808;2023-08-17T04:28:01;11.93;;;7.53;;
32838;SDS011;19182;41.820;12.808;2023-08-17T04:30:27;12.10;;;8.27;;
32838;SDS011;19182;41.820;12.808;2023-08-17T04:32:53;11.45;;;7.70;;
32838;SDS011;19182;41.820;12.808;2023-08-17T04:35:19;11.73;;;8.32;;
32838;SDS011;19182;41.820;12.808;2023-08-17T04:37:45;12.45;;;8.93;;
32838;SDS011;19182;41.820;12.808;2023-08-17T04:40:12;23.13;;;13.50;;
32838;SDS011;19182;41.820;12.808;2023-08-17T04:42:38;37.35;;;21.30;;
32838;SDS011;19182;41.820;12.808;2023-08-17T04:45:06;29.95;;;19.58;;
32838;SDS011;19182;41.820;12.808;2023-08-17T04:47:33;46.53;;;26.75;;
32838;SDS011;19182;41.820;12.808;2023-08-17T04:49:59;43.15;;;23.10;;
32838;SDS011;19182;41.820;12.808;2023-08-17T04:52:25;30.52;;;20.77;;
32838;SDS011;19182;41.820;12.808;2023-08-17T04:54:52;28.77;;;16.90;;
32838;SDS011;19182;41.820;12.808;2023-08-17T04:57:18;29.50;;;16.25;;
32838;SDS011;19182;41.820;12.808;2023-08-17T04:59:44;32.92;;;16.52;;
32838;SDS011;19182;41.820;12.808;2023-08-17T05:02:10;30.90;;;16.77;;
32838;SDS011;19182;41.820;12.808;2023-08-17T05:04:37;26.70;;;15.52;;
32838;SDS011;19182;41.820;12.808;2023-08-17T05:07:04;25.75;;;15.80;;
32838;SDS011;19182;41.820;12.808;2023-08-17T05:09:30;28.17;;;15.15;;
32838;SDS011;19182;41.820;12.808;2023-08-17T05:11:59;21.48;;;13.95;;
32838;SDS011;19182;41.820;12.808;2023-08-17T05:14:25;16.20;;;10.55;;
32838;SDS011;19182;41.820;12.808;2023-08-17T05:16:50;16.98;;;9.45;;
32838;SDS011;19182;41.820;12.808;2023-08-17T05:19:17;12.43;;;8.70;;
32838;SDS011;19182;41.820;12.808;2023-08-17T05:21:42;15.93;;;8.27;;
32838;SDS011;19182;41.820;12.808;2023-08-17T05:24:08;14.25;;;8.05;;
32838;SDS011;19182;41.820;12.808;2023-08-17T05:26:34;11.25;;;7.38;;
32838;SDS011;19182;41.820;12.808;2023-08-17T05:29:00;12.57;;;7.00;;
32838;SDS011;19182;41.820;12.808;2023-08-17T05:31:26;13.00;;;7.10;;
32838;SDS011;19182;41.820;12.808;2023-08-17T05:33:53;11.00;;;6.28;;
32838;SDS011;19182;41.820;12.808;2023-08-17T05:36:19;11.40;;;6.22;;
32838;SDS011;19182;41.820;12.808;2023-08-17T05:38:44;9.43;;;6.25;;
32838;SDS011;19182;41.820;12.808;2023-08-17T05:41:10;12.80;;;6.78;;
32838;SDS011;19182;41.820;12.808;2023-08-17T05:43:36;17.27;;;6.22;;
32838;SDS011;19182;41.820;12.808;2023-08-17T05:46:01;20.85;;;6.60;;
32838;SDS011;19182;41.820;12.808;2023-08-17T05:48:28;17.65;;;6.32;;
32838;SDS011;19182;41.820;12.808;2023-08-17T05:50:57;15.70;;;5.68;;
32838;SDS011;19182;41.820;12.808;2023-08-17T05:53:23;24.80;;;6.47;;
32838;SDS011;19182;41.820;12.808;2023-08-17T05:55:48;23.23;;;6.28;;
32838;SDS011;19182;41.820;12.808;2023-08-17T05:58:15;21.67;;;6.15;;
32838;SDS011;19182;41.820;12.808;2023-08-17T06:00:42;23.35;;;6.25;;
32838;SDS011;19182;41.820;12.808;2023-08-17T06:03:08;16.55;;;6.38;;
32838;SDS011;19182;41.820;12.808;2023-08-17T06:05:35;13.07;;;5.65;;
32838;SDS011;19182;41.820;12.808;2023-08-17T06:08:01;14.05;;;5.75;;
32838;SDS011;19182;41.820;12.808;2023-08-17T06:10:27;23.27;;;6.13;;
32838;SDS011;19182;41.820;12.808;2023-08-17T06:12:53;25.30;;;6.43;;
32838;SDS011;19182;41.820;12.808;2023-08-17T06:15:19;17.40;;;5.25;;
32838;SDS011;19182;41.820;12.808;2023-08-17T06:17:45;18.73;;;5.30;;
32838;SDS011;19182;41.820;12.808;2023-08-17T06:20:11;16.13;;;5.47;;
32838;SDS011;19182;41.820;12.808;2023-08-17T06:22:38;22.65;;;5.55;;
32838;SDS011;19182;41.820;12.808;2023-08-17T06:25:05;23.00;;;7.45;;
32838;SDS011;19182;41.820;12.808;2023-08-17T06:27:32;21.13;;;6.05;;
32838;SDS011;19182;41.820;12.808;2023-08-17T06:30:01;13.63;;;5.93;;
32838;SDS011;19182;41.820;12.808;2023-08-17T06:32:31;15.80;;;5.50;;
32838;SDS011;19182;41.820;12.808;2023-08-17T06:34:58;11.90;;;4.20;;
32838;SDS011;19182;41.820;12.808;2023-08-17T06:37:24;7.38;;;3.47;;
32838;SDS011;19182;41.820;12.808;2023-08-17T06:39:51;6.32;;;3.78;;
32838;SDS011;19182;41.820;12.808;2023-08-17T06:42:17;7.13;;;3.33;;
32838;SDS011;19182;41.820;12.808;2023-08-17T06:44:43;6.70;;;2.92;;
32838;SDS011;19182;41.820;12.808;2023-08-17T06:47:09;7.97;;;3.10;;
32838;SDS011;19182;41.820;12.808;2023-08-17T06:49:35;8.25;;;2.80;;
32838;SDS011;19182;41.820;12.808;2023-08-17T06:52:00;4.32;;;3.00;;
32838;SDS011;19182;41.820;12.808;2023-08-17T06:54:26;7.35;;;2.55;;
32838;SDS011;19182;41.820;12.808;2023-08-17T06:56:52;8.00;;;3.03;;
32838;SDS011;19182;41.820;12.808;2023-08-17T06:59:19;5.80;;;2.80;;
32838;SDS011;19182;41.820;12.808;2023-08-17T07:01:45;7.32;;;2.83;;
32838;SDS011;19182;41.820;12.808;2023-08-17T07:04:11;5.22;;;2.90;;
32838;SDS011;19182;41.820;12.808;2023-08-17T07:06:38;6.93;;;3.20;;
32838;SDS011;19182;41.820;12.808;2023-08-17T07:09:06;5.78;;;3.33;;
32838;SDS011;19182;41.820;12.808;2023-08-17T07:11:31;6.93;;;3.08;;
32838;SDS011;19182;41.820;12.808;2023-08-17T07:13:57;5.47;;;2.90;;
32838;SDS011;19182;41.820;12.808;2023-08-17T07:16:23;5.85;;;3.38;;
32838;SDS011;19182;41.820;12.808;2023-08-17T07:18:50;5.80;;;4.00;;
32838;SDS011;19182;41.820;12.808;2023-08-17T07:21:17;6.68;;;3.83;;
32838;SDS011;19182;41.820;12.808;2023-08-17T07:23:43;4.93;;;3.58;;
32838;SDS011;19182;41.820;12.808;2023-08-17T07:26:10;6.78;;;3.20;;
32838;SDS011;19182;41.820;12.808;2023-08-17T07:28:37;6.35;;;4.05;;
32838;SDS011;19182;41.820;12.808;2023-08-17T07:31:05;9.70;;;3.97;;
32838;SDS011;19182;41.820;12.808;2023-08-17T07:33:31;7.57;;;3.72;;
32838;SDS011;19182;41.820;12.808;2023-08-17T07:35:57;5.90;;;3.08;;
32838;SDS011;19182;41.820;12.808;2023-08-17T07:38:23;4.65;;;3.38;;
32838;SDS011;19182;41.820;12.808;2023-08-17T07:40:49;5.65;;;2.90;;
32838;SDS011;19182;41.820;12.808;2023-08-17T07:43:14;7.20;;;3.30;;
32838;SDS011;19182;41.820;12.808;2023-08-17T07:45:40;5.78;;;3.42;;
32838;SDS011;19182;41.820;12.808;2023-08-17T07:48:06;6.72;;;3.72;;
32838;SDS011;19182;41.820;12.808;2023-08-17T07:50:33;9.55;;;3.33;;
32838;SDS011;19182;41.820;12.808;2023-08-17T07:52:59;7.53;;;3.80;;
32838;SDS011;19182;41.820;12.808;2023-08-17T07:55:26;5.25;;;2.95;;
32838;SDS011;19182;41.820;12.808;2023-08-17T07:57:51;5.88;;;3.03;;
32838;SDS011;19182;41.820;12.808;2023-08-17T08:00:17;10.05;;;3.45;;
32838;SDS011;19182;41.820;12.808;2023-08-17T08:02:43;3.70;;;2.95;;
32838;SDS011;19182;41.820;12.808;2023-08-17T08:05:09;4.28;;;3.03;;
32838;SDS011;19182;41.820;12.808;2023-08-17T08:07:35;7.43;;;3.10;;
32838;SDS011;19182;41.820;12.808;2023-08-17T08:10:02;5.05;;;3.38;;
32838;SDS011;19182;41.820;12.808;2023-08-17T08:12:30;6.13;;;3.05;;
32838;SDS011;19182;41.820;12.808;2023-08-17T08:14:56;5.28;;;3.22;;
32838;SDS011;19182;41.820;12.808;2023-08-17T08:17:22;10.15;;;4.07;;
32838;SDS011;19182;41.820;12.808;2023-08-17T08:19:48;6.53;;;3.63;;
32838;SDS011;19182;41.820;12.808;2023-08-17T08:22:15;8.27;;;3.85;;
32838;SDS011;19182;41.820;12.808;2023-08-17T08:24:41;7.10;;;3.33;;
32838;SDS011;19182;41.820;12.808;2023-08-17T08:27:08;4.57;;;3.13;;
32838;SDS011;19182;41.820;12.808;2023-08-17T08:29:34;6.35;;;3.40;;
32838;SDS011;19182;41.820;12.808;2023-08-17T08:31:59;5.78;;;3.20;;
32838;SDS011;19182;41.820;12.808;2023-08-17T08:34:27;5.75;;;3.28;;
32838;SDS011;19182;41.820;12.808;2023-08-17T08:36:53;8.80;;;3.42;;
32838;SDS011;19182;41.820;12.808;2023-08-17T08:39:20;4.13;;;3.17;;
32838;SDS011;19182;41.820;12.808;2023-08-17T08:41:45;4.85;;;3.50;;
32838;SDS011;19182;41.820;12.808;2023-08-17T08:44:12;5.57;;;3.33;;
32838;SDS011;19182;41.820;12.808;2023-08-17T08:46:38;4.15;;;3.50;;
32838;SDS011;19182;41.820;12.808;2023-08-17T08:49:10;5.10;;;3.55;;
32838;SDS011;19182;41.820;12.808;2023-08-17T08:51:37;5.07;;;3.33;;
32838;SDS011;19182;41.820;12.808;2023-08-17T08:54:09;5.97;;;3.60;;
32838;SDS011;19182;41.820;12.808;2023-08-17T08:56:38;3.97;;;3.38;;
32838;SDS011;19182;41.820;12.808;2023-08-17T08:59:08;5.22;;;3.60;;
32838;SDS011;19182;41.820;12.808;2023-08-17T09:01:35;6.90;;;3.13;;
32838;SDS011;19182;41.820;12.808;2023-08-17T09:04:03;5.97;;;3.30;;
32838;SDS011;19182;41.820;12.808;2023-08-17T09:06:30;6.32;;;3.33;;
32838;SDS011;19182;41.820;12.808;2023-08-17T09:08:57;13.88;;;3.65;;
32838;SDS011;19182;41.820;12.808;2023-08-17T09:11:23;4.43;;;3.10;;
32838;SDS011;19182;41.820;12.808;2023-08-17T09:16:18;4.60;;;2.92;;
32838;SDS011;19182;41.820;12.808;2023-08-17T09:18:45;3.83;;;2.90;;
32838;SDS011;19182;41.820;12.808;2023-08-17T09:21:31;6.25;;;3.38;;
32838;SDS011;19182;41.820;12.808;2023-08-17T09:24:00;8.43;;;3.70;;
32838;SDS011;19182;41.820;12.808;2023-08-17T09:26:32;5.45;;;2.95;;
32838;SDS011;19182;41.820;12.808;2023-08-17T09:28:58;10.80;;;3.40;;
32838;SDS011;19182;41.820;12.808;2023-08-17T09:31:25;5.93;;;3.10;;
32838;SDS011;19182;41.820;12.808;2023-08-17T09:33:50;7.63;;;3.53;;
32838;SDS011;19182;41.820;12.808;2023-08-17T09:36:20;4.68;;;3.72;;
32838;SDS011;19182;41.820;12.808;2023-08-17T09:38:50;9.45;;;3.65;;
32838;SDS011;19182;41.820;12.808;2023-08-17T09:41:17;7.55;;;3.45;;
32838;SDS011;19182;41.820;12.808;2023-08-17T09:43:43;7.30;;;3.60;;
32838;SDS011;19182;41.820;12.808;2023-08-17T09:46:09;4.75;;;3.67;;
32838;SDS011;19182;41.820;12.808;2023-08-17T09:48:36;6.30;;;3.50;;
32838;SDS011;19182;41.820;12.808;2023-08-17T09:51:02;4.47;;;3.58;;
32838;SDS011;19182;41.820;12.808;2023-08-17T09:53:33;8.70;;;3.33;;
32838;SDS011;19182;41.820;12.808;2023-08-17T09:56:01;4.43;;;3.63;;
32838;SDS011;19182;41.820;12.808;2023-08-17T09:58:28;8.63;;;3.80;;
32838;SDS011;19182;41.820;12.808;2023-08-17T10:00:54;5.25;;;3.80;;
32838;SDS011;19182;41.820;12.808;2023-08-17T10:03:21;6.00;;;3.78;;
32838;SDS011;19182;41.820;12.808;2023-08-17T10:05:54;6.63;;;3.45;;
32838;SDS011;19182;41.820;12.808;2023-08-17T10:08:24;6.35;;;4.00;;
32838;SDS011;19182;41.820;12.808;2023-08-17T10:10:53;7.88;;;4.15;;
32838;SDS011;19182;41.820;12.808;2023-08-17T10:15:57;6.95;;;4.22;;
32838;SDS011;19182;41.820;12.808;2023-08-17T10:23:57;5.70;;;4.28;;
32838;SDS011;19182;41.820;12.808;2023-08-17T10:26:25;7.47;;;4.47;;
32838;SDS011;19182;41.820;12.808;2023-08-17T10:28:51;4.85;;;3.97;;
32838;SDS011;19182;41.820;12.808;2023-08-17T10:31:17;7.68;;;3.58;;
32838;SDS011;19182;41.820;12.808;2023-08-17T10:33:45;9.10;;;4.30;;
32838;SDS011;19182;41.820;12.808;2023-08-17T10:36:12;6.35;;;3.92;;
32838;SDS011;19182;41.820;12.808;2023-08-17T10:38:39;5.65;;;4.22;;
32838;SDS011;19182;41.820;12.808;2023-08-17T10:41:13;4.65;;;3.83;;
32838;SDS011;19182;41.820;12.808;2023-08-17T10:43:55;12.00;;;3.90;;
32838;SDS011;19182;41.820;12.808;2023-08-17T10:46:36;5.60;;;4.30;;
32838;SDS011;19182;41.820;12.808;2023-08-17T10:49:04;7.30;;;4.25;;
32838;SDS011;19182;41.820;12.808;2023-08-17T10:51:32;6.38;;;4.43;;
32838;SDS011;19182;41.820;12.808;2023-08-17T10:54:01;4.45;;;4.05;;
32838;SDS011;19182;41.820;12.808;2023-08-17T10:56:29;4.95;;;4.40;;
32838;SDS011;19182;41.820;12.808;2023-08-17T10:58:59;4.60;;;4.15;;
32838;SDS011;19182;41.820;12.808;2023-08-17T11:01:33;6.00;;;4.55;;
32838;SDS011;19182;41.820;12.808;2023-08-17T11:04:15;7.35;;;4.18;;
32838;SDS011;19182;41.820;12.808;2023-08-17T11:06:45;8.32;;;4.70;;
32838;SDS011;19182;41.820;12.808;2023-08-17T11:11:37;6.18;;;4.20;;
32838;SDS011;19182;41.820;12.808;2023-08-17T11:14:03;5.25;;;4.15;;
32838;SDS011;19182;41.820;12.808;2023-08-17T11:16:29;7.13;;;4.15;;
32838;SDS011;19182;41.820;12.808;2023-08-17T11:18:56;4.80;;;3.95;;
32838;SDS011;19182;41.820;12.808;2023-08-17T11:21:24;6.83;;;4.20;;
32838;SDS011;19182;41.820;12.808;2023-08-17T11:23:50;8.90;;;4.25;;
32838;SDS011;19182;41.820;12.808;2023-08-17T11:26:16;6.20;;;4.03;;
32838;SDS011;19182;41.820;12.808;2023-08-17T11:28:44;8.20;;;4.13;;
32838;SDS011;19182;41.820;12.808;2023-08-17T11:31:11;5.68;;;4.07;;
32838;SDS011;19182;41.820;12.808;2023-08-17T11:33:38;6.05;;;4.43;;
32838;SDS011;19182;41.820;12.808;2023-08-17T11:36:06;6.72;;;3.95;;
32838;SDS011;19182;41.820;12.808;2023-08-17T11:38:33;6.50;;;4.10;;
32838;SDS011;19182;41.820;12.808;2023-08-17T11:41:03;3.83;;;3.50;;
32838;SDS011;19182;41.820;12.808;2023-08-17T11:43:31;6.32;;;3.92;;
32838;SDS011;19182;41.820;12.808;2023-08-17T11:45:57;6.90;;;3.85;;
32838;SDS011;19182;41.820;12.808;2023-08-17T11:48:24;3.83;;;3.50;;
32838;SDS011;19182;41.820;12.808;2023-08-17T11:50:51;6.05;;;3.70;;
32838;SDS011;19182;41.820;12.808;2023-08-17T11:53:17;5.78;;;3.92;;
32838;SDS011;19182;41.820;12.808;2023-08-17T11:55:43;3.67;;;3.08;;
32838;SDS011;19182;41.820;12.808;2023-08-17T11:58:09;6.45;;;3.70;;
32838;SDS011;19182;41.820;12.808;2023-08-17T12:00:35;6.60;;;3.58;;
32838;SDS011;19182;41.820;12.808;2023-08-17T12:03:04;7.03;;;3.80;;
32838;SDS011;19182;41.820;12.808;2023-08-17T12:05:30;6.28;;;3.40;;
32838;SDS011;19182;41.820;12.808;2023-08-17T12:07:58;4.20;;;3.53;;
32838;SDS011;19182;41.820;12.808;2023-08-17T12:13:00;6.35;;;3.33;;
32838;SDS011;19182;41.820;12.808;2023-08-17T12:15:30;3.83;;;3.17;;
32838;SDS011;19182;41.820;12.808;2023-08-17T12:17:58;4.57;;;3.35;;
32838;SDS011;19182;41.820;12.808;2023-08-17T12:20:24;4.70;;;3.75;;
32838;SDS011;19182;41.820;12.808;2023-08-17T12:22:52;4.93;;;3.10;;
32838;SDS011;19182;41.820;12.808;2023-08-17T12:25:21;4.22;;;3.13;;
32838;SDS011;19182;41.820;12.808;2023-08-17T12:27:48;4.43;;;3.15;;
32838;SDS011;19182;41.820;12.808;2023-08-17T12:30:23;4.05;;;3.15;;
32838;SDS011;19182;41.820;12.808;2023-08-17T12:33:01;4.00;;;3.47;;
32838;SDS011;19182;41.820;12.808;2023-08-17T12:35:27;4.20;;;3.65;;
32838;SDS011;19182;41.820;12.808;2023-08-17T12:37:53;5.13;;;3.42;;
32838;SDS011;19182;41.820;12.808;2023-08-17T12:40:19;8.52;;;3.42;;
32838;SDS011;19182;41.820;12.808;2023-08-17T12:42:46;3.80;;;3.15;;
32838;SDS011;19182;41.820;12.808;2023-08-17T12:45:12;4.85;;;3.08;;
32838;SDS011;19182;41.820;12.808;2023-08-17T12:47:38;4.63;;;3.40;;
32838;SDS011;19182;41.820;12.808;2023-08-17T12:50:05;9.77;;;3.38;;
32838;SDS011;19182;41.820;12.808;2023-08-17T12:52:32;5.20;;;3.45;;
32838;SDS011;19182;41.820;12.808;2023-08-17T12:54:59;3.72;;;3.40;;
32838;SDS011;19182;41.820;12.808;2023-08-17T12:57:25;4.38;;;2.88;;
32838;SDS011;19182;41.820;12.808;2023-08-17T12:59:52;3.90;;;3.28;;
32838;SDS011;19182;41.820;12.808;2023-08-17T13:02:19;4.53;;;3.28;;
32838;SDS011;19182;41.820;12.808;2023-08-17T13:04:45;5.53;;;3.88;;
32838;SDS011;19182;41.820;12.808;2023-08-17T13:07:10;5.75;;;3.70;;
32838;SDS011;19182;41.820;12.808;2023-08-17T13:09:37;5.93;;;3.58;;
32838;SDS011;19182;41.820;12.808;2023-08-17T13:12:03;4.10;;;3.10;;
32838;SDS011;19182;41.820;12.808;2023-08-17T13:14:29;10.07;;;3.42;;
32838;SDS011;19182;41.820;12.808;2023-08-17T13:16:55;5.47;;;3.65;;
32838;SDS011;19182;41.820;12.808;2023-08-17T13:19:22;6.03;;;3.78;;
32838;SDS011;19182;41.820;12.808;2023-08-17T13:21:47;3.97;;;3.50;;
32838;SDS011;19182;41.820;12.808;2023-08-17T13:24:15;7.38;;;4.05;;
32838;SDS011;19182;41.820;12.808;2023-08-17T13:26:42;5.38;;;3.33;;
32838;SDS011;19182;41.820;12.808;2023-08-17T13:29:08;6.65;;;3.42;;
32838;SDS011;19182;41.820;12.808;2023-08-17T13:31:35;6.18;;;3.60;;
32838;SDS011;19182;41.820;12.808;2023-08-17T13:34:01;9.30;;;3.97;;
32838;SDS011;19182;41.820;12.808;2023-08-17T13:36:27;8.90;;;3.70;;
32838;SDS011;19182;41.820;12.808;2023-08-17T13:38:53;7.40;;;3.80;;
32838;SDS011;19182;41.820;12.808;2023-08-17T13:41:19;3.88;;;3.58;;
32838;SDS011;19182;41.820;12.808;2023-08-17T13:43:45;6.13;;;3.85;;
32838;SDS011;19182;41.820;12.808;2023-08-17T13:46:11;5.18;;;3.55;;
32838;SDS011;19182;41.820;12.808;2023-08-17T13:48:37;6.35;;;4.00;;
32838;SDS011;19182;41.820;12.808;2023-08-17T13:51:06;7.32;;;3.53;;
32838;SDS011;19182;41.820;12.808;2023-08-17T13:56:26;6.45;;;3.55;;
32838;SDS011;19182;41.820;12.808;2023-08-17T13:58:51;5.20;;;3.55;;
32838;SDS011;19182;41.820;12.808;2023-08-17T14:01:17;10.52;;;4.32;;
32838;SDS011;19182;41.820;12.808;2023-08-17T14:03:43;4.68;;;4.00;;
32838;SDS011;19182;41.820;12.808;2023-08-17T14:06:10;4.40;;;3.60;;
32838;SDS011;19182;41.820;12.808;2023-08-17T14:08:36;7.38;;;3.78;;
32838;SDS011;19182;41.820;12.808;2023-08-17T14:11:02;6.20;;;4.35;;
32838;SDS011;19182;41.820;12.808;2023-08-17T14:13:28;6.05;;;3.78;;
32838;SDS011;19182;41.820;12.808;2023-08-17T14:15:53;7.57;;;3.97;;
32838;SDS011;19182;41.820;12.808;2023-08-17T14:18:21;6.38;;;4.30;;
32838;SDS011;19182;41.820;12.808;2023-08-17T14:20:47;7.15;;;3.70;;
32838;SDS011;19182;41.820;12.808;2023-08-17T14:23:13;4.85;;;3.95;;
32838;SDS011;19182;41.820;12.808;2023-08-17T14:25:39;5.78;;;3.90;;
32838;SDS011;19182;41.820;12.808;2023-08-17T14:28:08;5.22;;;3.63;;
32838;SDS011;19182;41.820;12.808;2023-08-17T14:30:34;7.22;;;3.83;;
32838;SDS011;19182;41.820;12.808;2023-08-17T14:33:01;7.20;;;3.42;;
32838;SDS011;19182;41.820;12.808;2023-08-17T14:35:28;6.88;;;3.90;;
32838;SDS011;19182;41.820;12.808;2023-08-17T14:37:53;4.93;;;3.28;;
32838;SDS011;19182;41.820;12.808;2023-08-17T14:40:22;6.00;;;3.53;;
32838;SDS011;19182;41.820;12.808;2023-08-17T14:42:48;4.53;;;3.70;;
32838;SDS011;19182;41.820;12.808;2023-08-17T14:45:14;5.90;;;3.38;;
32838;SDS011;19182;41.820;12.808;2023-08-17T14:47:40;5.40;;;3.60;;
32838;SDS011;19182;41.820;12.808;2023-08-17T14:50:05;7.40;;;3.95;;
32838;SDS011;19182;41.820;12.808;2023-08-17T14:52:32;8.98;;;3.75;;